Adams, Oregon
Current Conditions -  °F | °C
As of 4:03 AM on Monday 26 Jan 2015 (Local Time) from KPDT Reporting Station
Moderate Fog Moderate Fog  
Wind Chill: 25°   Ceiling: 100
Heat Index: 33°   Visibility: 0mi
Dew Point: 32°   Wind: 10mph
Humidity: 96%   Direction: 280°W
Pressure: 30.06"   Gusts: NA
Location:  45.77°N, 118.56°W
Report Text: KPDT 261203Z AUTO 28009KT M1/4SM FG VV001 01/00 A3006 RMK AO2 T00060000
Loading
Personal Weather Stations






























Interactive Weather Map New forecast layout! Learn more

10-Day Weather Forecast

Advertisements
Track Severe Weather on mobile